Drogo 10

Sunday, November 14, 2021 10:30 (GMT+0) - Preliminary results

Race info
Sport: Running - trail
Location: Drewsteignton, United Kingdom
Start type: Mass start
Racers: 448
Timed on: iPad
Timed with: Webscorer PRO 5.0
Updated: Sunday, November 14, 2021 13:28 (GMT+0)
Organized by: South West Road Runners
Race website: http://www.swrr.co.uk/

Contact organizer

Use this form to send an email to the organizer.

Your name
Your email address
Confirm email address
Message to organizer
Send

Page / 2
Racers per page:
Place Bib Racer name Affiliation Category Age Gender Finish time
1227Samuel KellyExmouth Harriers Male Senior24M 1:01:10.2--100%40.16%38.83%10:30:14.0
2141Simon FoxExeter Harriers Male Senior31M 1:01:37.6+0:27.4+0.75%99.26%39.71%38.38%10:30:14.0
3391Jamie StephensonMile High Male Senior34M 1:01:42.2+0:32.0+0.87%99.14%39.64%38.30%10:30:14.0
4350Luke RobertsTORQ PERFORMANCE Male Senior24M 1:02:32.2+1:22.0+2.23%97.81%38.82%37.47%10:30:14.0
588Callum CrawfordExeter Harriers Male Senior27M 1:04:04.5+2:54.3+4.75%95.47%37.32%35.93%10:30:14.0
6339Ceri Rees Male Vet 4549M 1:05:29.4+4:19.2+7.06%93.40%35.93%34.51%10:30:14.0
7263Matthew McCullaghSouth West Road Runners Male Senior25M 1:08:10.8+7:00.6+11.46%89.72%33.30%31.83%10:30:14.0
848Jack BroomAxe Valley Runners Male Senior22M 1:08:29.7+7:19.5+11.97%89.31%32.99%31.51%10:30:14.0
9253Alex MarplesTruro Running Club Male Vet 4043M 1:08:32.1+7:21.9+12.04%89.25%32.95%31.47%10:30:14.0
10251Ross MacdonaldPlymouth Musketeers Running Club Male Senior34M 1:08:34.6+7:24.4+12.11%89.20%32.91%31.43%10:30:14.0
1150Nick Bruce-WhiteSouth West Road Runners Male Vet 4042M 1:08:52.9+7:42.7+12.61%88.80%32.61%31.12%10:30:14.0
12443Oliver WhiteExmouth Harriers Male Senior36M 1:09:41.1+8:30.9+13.92%87.78%31.83%30.32%10:30:14.0
13323Ang PierisKent AC Male Vet 4042M 1:10:14.2+9:04.0+14.82%87.09%31.29%29.77%10:30:14.0
14142James KirtonTruro Running Club Male Senior33M 1:10:34.3+9:24.1+15.37%86.68%30.96%29.43%10:30:14.0
15199Dominic Hiltonmanaton milers Male Vet 4043M 1:10:40.4+9:30.2+15.54%86.55%30.86%29.33%10:30:14.0
16461Howard BaileyExeter Harriers Male Senior32M 1:11:01.8+9:51.6+16.12%86.12%30.51%28.98%10:30:14.0
17291Chris MurphySouth West Road Runners Male Senior34M 1:11:49.4+10:39.2+17.42%85.17%29.74%28.18%10:30:14.0
18407Daniel Thomas Male Senior33M 1:12:33.3+11:23.1+18.61%84.31%29.02%27.45%10:30:14.0
19211Scott HunterSouth West Road Runners Male Senior38M 1:13:42.8+12:32.6+20.51%82.98%27.89%26.29%10:30:14.0
20171Richard HardyAxe Valley Runners Male Senior38M 1:13:59.1+12:48.9+20.95%82.68%27.62%26.02%10:30:14.0
2177Robert CollierAxe Valley Runners Male Vet 5051M 1:14:10.1+12:59.9+21.25%82.47%27.44%25.84%10:30:14.0
22395Ben StoneAxe Valley Runners Male Vet 4043M 1:14:16.9+13:06.7+21.43%82.35%27.33%25.72%10:30:14.0
23175Rosie HattersleySouth West Road Runners Female Senior28F 1:14:49.5+13:39.3+22.32%81.75%26.80%25.18%10:30:14.0
24430Ewan WaltonTeignbridge Trotters Male Vet 4042M 1:15:29.0+14:18.8+23.40%81.04%26.16%24.52%10:30:14.0
25193Geoffrey HillOkehampton RC Male Vet 4547M 1:15:50.2+14:40.0+23.98%80.66%25.81%24.17%10:30:14.0
26208Jamie HowardSouth West Road Runners Male Vet 4044M 1:16:10.1+14:59.9+24.52%80.31%25.49%23.84%10:30:14.0
27210Roland HunterChagford Running Club Male Vet 4547M 1:16:16.4+15:06.2+24.69%80.20%25.38%23.73%10:30:14.0
28332George Price-Individual- Male Senior31M 1:17:00.0+15:49.8+25.88%79.44%24.67%23.01%10:30:14.0
2963Nick CaseySouth West Road Runners Male Vet 5052M 1:17:09.7+15:59.5+26.14%79.28%24.51%22.84%10:30:14.0
3087Philip CowlardSouth West Road Runners Male Senior39M 1:17:24.6+16:14.4+26.55%79.02%24.27%22.60%10:30:14.0
31311Ethan PaveySouth West Road Runners Male Senior29M 1:17:54.8+16:44.6+27.37%78.51%23.78%22.09%10:30:14.0
32401Philip TaylorTaunton Athletics Club Male Senior38M 1:17:59.3+16:49.1+27.49%78.43%23.70%22.02%10:30:14.0
33426Tim ViallsSouth West Road Runners Male Vet 5558M 1:18:07.4+16:57.2+27.72%78.30%23.57%21.88%10:30:14.0
34132Ben Farrow Male Vet 4042M 1:18:28.9+17:18.7+28.30%77.94%23.22%21.52%10:30:14.0
35306Rupert PadyAxe Valley Runners Male Vet 5053M 1:18:33.8+17:23.6+28.43%77.86%23.14%21.44%10:30:14.0
36409Paul ThomasSouth West Road Runners Male Vet 6061M 1:18:40.9+17:30.7+28.63%77.74%23.03%21.32%10:30:14.0
3776Stephen CollierSouth West Road Runners Male Vet 4545M 1:18:45.4+17:35.2+28.75%77.67%22.95%21.25%10:30:14.0
38119Nicholas EinchcombSouth West Road Runners Male Vet 5559M 1:19:17.2+18:07.0+29.62%77.15%22.43%20.72%10:30:14.0
39225Robert KellyOkehampton RC Male Vet 4041M 1:19:43.4+18:33.2+30.33%76.73%22.01%20.28%10:30:14.0
40307Ian PangSouth West Road Runners Male Vet 5558M 1:20:00.4+18:50.2+30.79%76.46%21.73%20.00%10:30:14.0
41238Wayne Kirby Male Senior39M 1:20:09.3+18:59.1+31.04%76.31%21.59%19.85%10:30:14.0
42399Rob Sweet Male Vet 4546M 1:20:11.4+19:01.2+31.09%76.28%21.55%19.82%10:30:14.0
43124David EngledewErme Valley Harriers Male Vet 6062M 1:20:17.7+19:07.5+31.27%76.18%21.45%19.71%10:30:14.0
44174Harry HarrisonSouth Devon AC Male Senior28M 1:20:19.7+19:09.5+31.32%76.15%21.42%19.68%10:30:14.0
4557Tom CannonEmersons Green Running Club Male Vet 4040M 1:20:48.7+19:38.5+32.11%75.69%20.94%19.19%10:30:14.0
46421Carla TunnicliffePlymstock Road Runners Female Senior30F 1:21:12.5+20:02.3+32.76%75.32%20.55%18.80%10:30:14.0
4794Mark CullertonPlymouth Musketeers Running Club Male Vet 4548M 1:21:28.7+20:18.5+33.20%75.08%20.29%18.53%10:30:14.0
48292Stuart MussonTruro Running Club Male Vet 4041M 1:21:45.3+20:35.1+33.65%74.82%20.02%18.25%10:30:14.0
49268Jack McLarty Male Senior26M 1:22:10.0+20:59.8+34.33%74.45%19.62%17.84%10:30:14.0
50467Steve Sage Male Vet 4547M 1:22:12.0+21:01.8+34.38%74.42%19.58%17.81%10:30:14.0
51120Lee Elston-Individual- Male Vet 4547M 1:22:37.3+21:27.1+35.07%74.04%19.17%17.38%10:30:14.0
51308Fergus Pate Male Senior38M 1:22:37.3+21:27.1+35.07%74.04%19.17%17.38%10:30:14.0
53284Rebecca MorganTruro Running Club Female Vet 4043F 1:22:46.7+21:36.5+35.33%73.90%19.02%17.23%10:30:14.0
54465Russ StevensSouth West Road Runners Male Senior38M 1:23:48.6+22:38.4+37.01%72.99%18.01%16.20%10:30:14.0
55363Mark Saunders Male Vet 4546M 1:23:53.3+22:43.1+37.14%72.92%17.93%16.12%10:30:14.0
5646Chris BroadbentTeignbridge Trotters Female Vet 4547F 1:24:04.9+22:54.7+37.46%72.75%17.74%15.92%10:30:14.0
5784Katie CoultSouth West Road Runners Female Senior38F 1:24:09.2+22:59.0+37.57%72.69%17.67%15.85%10:30:14.0
58342Ben Reynolds Male Vet 4041M 1:24:23.1+23:12.9+37.95%72.49%17.45%15.62%10:30:14.0
59192Victoria HillSouth West Road Runners Female Vet 4040F 1:24:26.5+23:16.3+38.04%72.44%17.39%15.56%10:30:14.0
60463Jasper Emanuel-Individual- Male Vet 4041M 1:25:03.4+23:53.2+39.05%71.92%16.79%14.95%10:30:14.0
61353Steve RosserSouth West Road Runners Male Vet 5555M 1:25:11.3+24:01.1+39.26%71.81%16.66%14.82%10:30:14.0
62299Geoff NichollsGreenbow Running Club Male Vet 6064M 1:25:14.0+24:03.8+39.34%71.77%16.62%14.77%10:30:14.0
63312Jo PearceSouth West Road Runners Female Vet 5051F 1:25:22.9+24:12.7+39.58%71.64%16.47%14.62%10:30:14.0
64191Stuart Hill Male Vet 4044M 1:25:51.6+24:41.4+40.36%71.24%16.00%14.15%10:30:14.0
6528James Bacon Male Senior25M 1:26:01.2+24:51.0+40.62%71.11%15.85%13.99%10:30:14.0
66453Eleanor WoodAxe Valley Runners Female Vet 6064F 1:26:23.3+25:13.1+41.23%70.81%15.49%13.62%10:30:14.0
67300Peter NicholsHoniton RC Male Vet 4041M 1:26:24.2+25:14.0+41.25%70.80%15.47%13.60%10:30:14.0
6832Francisco BayonaSouth West Road Runners Male Vet 4041M 1:26:27.4+25:17.2+41.34%70.75%15.42%13.55%10:30:14.0
69335David Rampersad Male Vet 5054M 1:26:29.4+25:19.2+41.39%70.72%15.39%13.52%10:30:14.0
70458William YoungHaldon Trail Runners Male Senior36M 1:26:46.1+25:35.9+41.85%70.50%15.12%13.24%10:30:14.0
71327Chris PolleyAxe Valley Runners Male Vet 5051M 1:26:57.0+25:46.8+42.14%70.35%14.94%13.06%10:30:14.0
72404Charlie TemperleyOkehampton RC Male Senior29M 1:27:00.0+25:49.8+42.23%70.31%14.89%13.01%10:30:14.0
7360Arron Carpenter Male Vet 4545M 1:27:03.1+25:52.9+42.31%70.27%14.84%12.95%10:30:14.0
74103Becky DaviesSouth West Road Runners Female Senior32F 1:27:06.3+25:56.1+42.40%70.23%14.79%12.90%10:30:14.0
75200Sarah HironsErme Valley Harriers Female Vet 4041F 1:27:11.9+26:01.7+42.55%70.15%14.69%12.81%10:30:14.0
76302Ceri OakHoniton RC Female Vet 5050F 1:27:28.6+26:18.4+43.01%69.93%14.42%12.53%10:30:14.0
77337Ben ReedSouth Devon AC Male Senior38M 1:27:34.3+26:24.1+43.16%69.85%14.33%12.43%10:30:14.0
78296Mark NewsonHoniton RC Male Vet 5555M 1:27:42.4+26:32.2+43.38%69.74%14.20%12.30%10:30:14.0
79140Mark FosterDulwich Runners AC Male Vet 5555M 1:27:49.3+26:39.1+43.57%69.65%14.09%12.18%10:30:14.0
80246Brendan Lightfoot Male Vet 4044M 1:27:57.8+26:47.6+43.80%69.54%13.95%12.04%10:30:14.0
81145Shaun Fryett Male Senior33M 1:28:06.7+26:56.5+44.04%69.42%13.80%11.89%10:30:14.0
82203James Hood-Smith Male Vet 4041M 1:28:20.7+27:10.5+44.43%69.24%13.57%11.66%10:30:14.0
83102Simon DaveyAxe Valley Runners Male Vet 5054M 1:28:51.3+27:41.1+45.26%68.84%13.07%11.15%10:30:14.0
84156Ian Grail Male Vet 5054M 1:28:56.7+27:46.5+45.41%68.77%12.99%11.06%10:30:14.0
85128Karen EyreAxe Valley Runners Female Vet 5051F 1:29:01.9+27:51.7+45.55%68.71%12.90%10.98%10:30:14.0
86105Mike DaviesOkehampton RC Male Vet 4545M 1:29:04.4+27:54.2+45.62%68.67%12.86%10.93%10:30:14.0
87293Barry NealErme Valley Harriers Male Vet 4041M 1:29:06.2+27:56.0+45.67%68.65%12.83%10.90%10:30:14.0
88189Charly Hicks Female Senior29F 1:29:14.8+28:04.6+45.90%68.54%12.69%10.76%10:30:14.0
8930Dave BatesOkehampton RC Male Vet 6568M 1:29:28.6+28:18.4+46.28%68.36%12.47%10.53%10:30:14.0
90438Andrew WestAxe Valley Runners Male Vet 6063M 1:29:34.4+28:24.2+46.43%68.29%12.37%10.43%10:30:14.0
91346Simon Rickard Male Vet 4547M 1:29:59.9+28:49.7+47.13%67.97%11.96%10.01%10:30:14.0
92176Matt Havard-Individual- Male Vet 4548M 1:30:05.3+28:55.1+47.28%67.90%11.87%9.92%10:30:14.0
93237Ian KinnersleyAxe Valley Runners Male Vet 6060M 1:30:07.1+28:56.9+47.32%67.88%11.84%9.89%10:30:14.0
94364Lawrence SchneckGreenbow Running Club Male Vet 4548M 1:30:12.9+29:02.7+47.48%67.80%11.74%9.79%10:30:14.0
9553Neil Burgess Male Vet 4546M 1:30:23.7+29:13.5+47.78%67.67%11.57%9.61%10:30:14.0
96343Louise ReynoldsSouth West Road Runners Female Vet 4044F 1:30:27.5+29:17.3+47.88%67.62%11.51%9.55%10:30:14.0
97131Jonathan Farquharson Male Vet 5556M 1:30:39.0+29:28.8+48.19%67.48%11.32%9.36%10:30:14.0
97367Peter Seigne Male Vet 5556M 1:30:39.0+29:28.8+48.19%67.48%11.32%9.36%10:30:14.0
99234Eddie Kingdom Male Senior38M 1:30:40.4+29:30.2+48.23%67.46%11.30%9.33%10:30:14.0
10023Mark AldermanNorth Devon Triathletes Male Vet 5051M 1:30:44.0+29:33.8+48.33%67.42%11.24%9.27%10:30:14.0
101219Christopher Johns Male Vet 5052M 1:30:48.9+29:38.7+48.46%67.36%11.16%9.19%10:30:14.0
102230Andrew Keogh Male Senior29M 1:31:02.3+29:52.1+48.83%67.19%10.94%8.97%10:30:14.0
10392David CrowtherBideford AAC Male Vet 5559M 1:31:04.3+29:54.1+48.88%67.17%10.91%8.94%10:30:14.0
10464Paul ChadwickWells City Harriers Male Vet 6064M 1:31:12.4+30:02.2+49.10%67.07%10.77%8.80%10:30:14.0
105457Ruth WrightChagford Running Club Female Vet 5556F 1:31:17.4+30:07.2+49.24%67.01%10.69%8.72%10:30:14.0
106442Ian WhiteSouth West Road Runners Male Vet 4549M 1:31:20.2+30:10.0+49.32%66.97%10.65%8.67%10:30:14.0
10735Howard BidmeadHoniton RC Male Vet 6064M 1:31:23.8+30:13.6+49.41%66.93%10.59%8.61%10:30:14.0
108136Kieran FerrisSouth West Road Runners Male Senior28M 1:31:35.4+30:25.2+49.73%66.79%10.40%8.42%10:30:14.0
10921Neil AdgerSouth West Road Runners Male Vet 5557M 1:31:36.6+30:26.4+49.76%66.77%10.38%8.40%10:30:14.0
110196Abigail Hill Female Senior30F 1:31:40.9+30:30.7+49.88%66.72%10.31%8.33%10:30:14.0
11137Kerry BoardAxe Valley Runners Female Vet 4546F 1:32:14.3+31:04.1+50.79%66.32%9.76%7.77%10:30:14.0
112135Andrew Ferguson-Individual- Male Vet 5555M 1:32:15.4+31:05.2+50.82%66.30%9.75%7.75%10:30:14.0
113464Rebecca Stanton Female Vet 5054F 1:32:18.9+31:08.7+50.92%66.26%9.69%7.69%10:30:14.0
114213Andrew IleySouth West Road Runners Male Vet 4041M 1:32:32.6+31:22.4+51.29%66.10%9.47%7.46%10:30:14.0
11526Maria AnthonyChepstow Harriers Female Vet 5555F 1:32:34.1+31:23.9+51.33%66.08%9.44%7.44%10:30:14.0
11699Steve DaveyHoniton RC Male Vet 6060M 1:32:36.4+31:26.2+51.39%66.05%9.40%7.40%10:30:14.0
117351Wendy RobertshawBridport Runners Female Senior25F 1:32:44.2+31:34.0+51.60%65.96%9.28%7.27%10:30:14.0
11880Andy Cooke Male Senior28M 1:32:53.9+31:43.7+51.87%65.85%9.12%7.11%10:30:14.0
119341Kit ReynoldsExeter Triathlon Club Male Vet 4044M 1:32:55.3+31:45.1+51.91%65.83%9.10%7.09%10:30:14.0
120123Alison EngledewErme Valley Harriers Female Vet 6063F 1:33:20.7+32:10.5+52.60%65.53%8.68%6.66%10:30:14.0
121107Suzanne DavisCheddar RC Female Vet 4044F 1:33:50.7+32:40.5+53.42%65.18%8.19%6.16%10:30:14.0
122113Michael Dunford Male Vet 4548M 1:33:55.3+32:45.1+53.54%65.13%8.12%6.09%10:30:14.0
123173Will Harrison Male Senior38M 1:34:14.2+33:04.0+54.06%64.91%7.81%5.77%10:30:14.0
124433Nkwatson86@Gmail.Com Watson-Individual- Male Senior34M 1:34:21.5+33:11.3+54.26%64.83%7.69%5.65%10:30:14.0
125100Judy DaveyHoniton RC Female Vet 5559F 1:34:28.3+33:18.1+54.44%64.75%7.58%5.54%10:30:14.0
126415Suzie ToshSouth West Road Runners Female Vet 4546F 1:34:33.4+33:23.2+54.58%64.69%7.50%5.45%10:30:14.0
127166Kevin HagleySouth West Road Runners Male Vet 5559M 1:34:40.6+33:30.4+54.78%64.61%7.38%5.33%10:30:14.0
128252Ben Marks Male Senior36M 1:34:51.7+33:41.5+55.08%64.48%7.20%5.15%10:30:14.0
129422Emily Turner Female Vet 4545F 1:35:13.8+34:03.6+55.68%64.23%6.84%4.78%10:30:14.0
13090Kevin CrockerTorbay tri Male Senior39M 1:35:19.0+34:08.8+55.82%64.18%6.75%4.69%10:30:14.0
131393Lutane Steyn Male Senior33M 1:35:43.6+34:33.4+56.49%63.90%6.35%4.28%10:30:14.0
132177Simon HawkesClevedon AC Male Vet 6063M 1:35:51.2+34:41.0+56.70%63.82%6.23%4.15%10:30:14.0
13343Thomas Brew Male Senior32M 1:36:01.1+34:50.9+56.97%63.71%6.07%3.99%10:30:14.0
134373Mark SinclairPlymouth Musketeers Running Club Male Vet 5053M 1:36:06.0+34:55.8+57.10%63.65%5.99%3.91%10:30:14.0
135206Peter Houghton Male Vet 5051M 1:36:16.5+35:06.3+57.39%63.54%5.82%3.73%10:30:14.0
136452Charlie WithersSouth West Road Runners Male Vet 4044M 1:36:20.3+35:10.1+57.49%63.49%5.75%3.67%10:30:14.0
13736Paul BlundellHardley Runners Male Vet 5557M 1:36:31.6+35:21.4+57.80%63.37%5.57%3.48%10:30:14.0
138228Luke Kelsal Male Senior37M 1:36:37.7+35:27.5+57.97%63.30%5.47%3.38%10:30:14.0
139146William Gallios Male Vet 5050M 1:36:47.3+35:37.1+58.23%63.20%5.31%3.22%10:30:14.0
140106Nicola DaviesHaldon Trail Runners Female Vet 5050F 1:36:56.4+35:46.2+58.48%63.10%5.16%3.07%10:30:14.0
140157Nigel GrantBude Rats (Run and Tri) Male Vet 6061M 1:36:56.4+35:46.2+58.48%63.10%5.16%3.07%10:30:14.0
142423Graham Unwin Male Senior32M 1:37:05.7+35:55.5+58.73%63.00%5.01%2.91%10:30:14.0
143109Danielle De Simone Female Senior29F 1:37:10.6+36:00.4+58.86%62.95%4.93%2.83%10:30:14.0
144413Ken TinklerNewton Abbot AC Male Vet 6565M 1:37:19.8+36:09.6+59.11%62.85%4.78%2.68%10:30:14.0
145125Ben EppsHaldon Trail Runnera Male Vet 4547M 1:37:29.5+36:19.3+59.38%62.74%4.63%2.52%10:30:14.0
146376Tim Sleeman-Individual- Male Vet 5053M 1:37:34.2+36:24.0+59.51%62.69%4.55%2.44%10:30:14.0
147340Nick Reeves Male Senior39M 1:37:47.3+36:37.1+59.86%62.55%4.33%2.22%10:30:14.0
148216Fred JenkinsInstinctive Sport Fun Runners Male Vet 6061M 1:37:52.1+36:41.9+59.99%62.50%4.26%2.14%10:30:14.0
149298Laura NichollsSouth West Road Runners Female Senior35F 1:37:54.8+36:44.6+60.07%62.47%4.21%2.09%10:30:14.0
150194Susan HillExmouth Harriers Female Vet 6062F 1:38:01.5+36:51.3+60.25%62.40%4.10%1.98%10:30:14.0
151260Becky Matthews Female Senior33F 1:38:01.9+36:51.7+60.26%62.40%4.10%1.98%10:30:14.0
152162Harvey GurryPlymstock Road Runners Male Vet 5558M 1:38:08.5+36:58.3+60.44%62.33%3.99%1.87%10:30:14.0
152183Martin HeadBere Alston Trekkers Male Vet 5053M 1:38:08.5+36:58.3+60.44%62.33%3.99%1.87%10:30:14.0
152303Sam Oldfield Male Senior34M 1:38:08.5+36:58.3+60.44%62.33%3.99%1.87%10:30:14.0
155455Jack Woodward Male Senior31M 1:38:13.1+37:02.9+60.57%62.28%3.91%1.79%10:30:14.0
15625Tracy AllanClevedon AC Female Vet 5559F 1:38:16.6+37:06.4+60.66%62.24%3.86%1.73%10:30:14.0
157289Harriet MundaySouth West Road Runners Female Senior28F 1:38:18.8+37:08.6+60.72%62.22%3.82%1.69%10:30:14.0
158188Gabrielle Hews-Individual- Female Vet 4547F 1:38:30.9+37:20.7+61.05%62.09%3.62%1.49%10:30:14.0
159416David TregellesLonely Goat RC Male Vet 5559M 1:38:38.8+37:28.6+61.27%62.01%3.50%1.36%10:30:14.0
160247Nicholas LloydChagford Running Club Male Vet 5557M 1:38:40.6+37:30.4+61.32%61.99%3.47%1.33%10:30:14.0
161361Mark Sanders Male Vet 5555M 1:38:49.9+37:39.7+61.57%61.89%3.31%1.18%10:30:14.0
162439Pippa WestallHoniton RC Female Vet 5558F 1:38:52.5+37:42.3+61.64%61.87%3.27%1.13%10:30:14.0
163181Susan HayesAxe Valley Runners Female Vet 4547F 1:39:01.0+37:50.8+61.87%61.78%3.13%0.99%10:30:14.0
164152Rosie GlazierSouth West Road Runners Female Senior32F 1:39:01.4+37:51.2+61.88%61.77%3.13%0.98%10:30:14.0
165201Peter Hoban Male Vet 5557M 1:39:01.8+37:51.6+61.89%61.77%3.12%0.98%10:30:14.0
166305John Outhwaite Male Vet 6569M 1:39:05.3+37:55.1+61.99%61.73%3.06%0.92%10:30:14.0
16751Julian BuddSouth West Road Runners Male Vet 5556M 1:39:19.4+38:09.2+62.37%61.59%2.83%0.68%10:30:14.0
168110Roz DebenhamSouth West Road Runners Female Vet 4040F 1:39:28.8+38:18.6+62.63%61.49%2.68%0.53%10:30:14.0
16940Rachel BowerChagford Running Club Female Vet 5556F 1:39:30.6+38:20.4+62.68%61.47%2.65%0.50%10:30:14.0
170249Rachel LongthorpeTorbay Tri Club Female Vet 5051F 1:39:34.5+38:24.3+62.78%61.43%2.59%0.43%10:30:14.0
171220Frances JohnsonEgdon Heath Harriers Female Vet 5555F 1:39:41.6+38:31.4+62.98%61.36%2.47%0.31%10:30:14.0
17249Mark Bruce Male Vet 4548M 1:39:44.9+38:34.7+63.07%61.32%2.42%0.26%10:30:14.0
17339Guy BoswellPlymouth Musketeers Running Club Male Vet 5558M 1:39:52.2+38:42.0+63.27%61.25%2.30%0.14%10:30:14.0
174462Jenny Debenham Female Vet 4042F 1:39:58.9+38:48.7+63.45%61.18%2.19%0.03%10:30:14.0
175147Jamie Gamble Male Senior23M 1:40:02.0+38:51.8+63.53%61.15%2.14%-0.03%10:30:14.0
176389Lucy Stanton Female Senior39F 1:40:43.4+39:33.2+64.66%60.73%1.46%-0.72%10:30:14.0
177310Mark PattendenHolsworthy Running Club Male Vet 4044M 1:40:44.3+39:34.1+64.69%60.72%1.45%-0.73%10:30:14.0
178186Rachel HennesseyHoniton RC Female Senior36F 1:40:58.1+39:47.9+65.06%60.58%1.22%-0.96%10:30:14.0
179197Michaela Hillman Female Vet 5556F 1:41:00.3+39:50.1+65.12%60.56%1.19%-1.00%10:30:14.0
180380Laura Smith Male Senior29M 1:41:06.0+39:55.8+65.28%60.50%1.10%-1.09%10:30:14.0
18182Claire CornishSouth Devon AC Female Vet 4041F 1:41:07.3+39:57.1+65.31%60.49%1.07%-1.11%10:30:14.0
182370Adam Sheffield Male Vet 4546M 1:41:21.4+40:11.2+65.70%60.35%0.84%-1.35%10:30:14.0
183226Nicola KellyExmouth Harriers Female Vet 5558F 1:41:21.6+40:11.4+65.70%60.35%0.84%-1.35%10:30:14.0
184375Jennie SleemanHoniton RC Female Vet 6063F 1:41:21.8+40:11.6+65.71%60.35%0.84%-1.36%10:30:14.0
185374Jeremy SladeAxe Valley Runners Male Vet 5054M 1:42:22.1+41:11.9+67.35%59.75%-0.15%-2.36%10:30:14.0
186250Martin LovelessHardley Runners Male Vet 6064M 1:42:29.6+41:19.4+67.55%59.68%-0.27%-2.49%10:30:14.0
187207Andy HoughtonTavistock AC Male Vet 70+75M 1:42:44.1+41:33.9+67.95%59.54%-0.50%-2.73%10:30:14.0
188254John Marshall-Individual- Male Vet 5559M 1:42:44.4+41:34.2+67.96%59.54%-0.51%-2.73%10:30:14.0
189272Clare MelbourneHoniton RC Female Senior36F 1:42:51.9+41:41.7+68.16%59.47%-0.63%-2.86%10:30:14.0
190270Kelly McgurkExmouth Harriers Female Senior22F 1:42:52.9+41:42.7+68.19%59.46%-0.65%-2.87%10:30:14.0
191172Richard HarrisHoniton RC Male Vet 6063M 1:42:54.9+41:44.7+68.24%59.44%-0.68%-2.91%10:30:14.0
192262Amanda McCannExmouth Harriers Female Vet 4548F 1:43:04.9+41:54.7+68.52%59.34%-0.84%-3.07%10:30:14.0
193446Emma WhiteExmouth Harriers Female Senior35F 1:43:13.9+42:03.7+68.76%59.26%-0.99%-3.22%10:30:14.0
193447Lucy Davies Female Senior35F 1:43:13.9+42:03.7+68.76%59.26%-0.99%-3.22%10:30:14.0
195187Dawn Herridge Female Vet 4044F 1:43:16.1+42:05.9+68.82%59.23%-1.03%-3.26%10:30:14.0
196383Claire SorensenExmouth Harriers Female Senior39F 1:43:53.4+42:43.2+69.84%58.88%-1.63%-3.88%10:30:14.0
197155Linda GradyHoniton RC Female Vet 5054F 1:44:12.9+43:02.7+70.37%58.70%-1.95%-4.21%10:30:14.0
19895Tracey CullertonPlymouth Musketeers Running Club Female Vet 5050F 1:44:32.7+43:22.5+70.91%58.51%-2.28%-4.54%10:30:14.0
198256Gary MartinPlymouth Musketeers Running Club Male Vet 5052M 1:44:32.7+43:22.5+70.91%58.51%-2.28%-4.54%10:30:14.0
198258Sam MartinPlymouth Musketeers Running Club Female Vet 4549F 1:44:32.7+43:22.5+70.91%58.51%-2.28%-4.54%10:30:14.0
201288Paul Mouland Male Vet 4546M 1:44:38.6+43:28.4+71.07%58.46%-2.37%-4.64%10:30:14.0
20297Lee CusickSouth West Road Runners Male Vet 5555M 1:44:48.5+43:38.3+71.34%58.36%-2.53%-4.80%10:30:14.0
203282Fiona Moran Female Senior31F 1:44:53.5+43:43.3+71.48%58.32%-2.61%-4.88%10:30:14.0
203287Anna-Mae Morton Female Senior29F 1:44:53.5+43:43.3+71.48%58.32%-2.61%-4.88%10:30:14.0
205134Kevin FeeneyAxe Valley Runners Male Vet 6567M 1:44:55.4+43:45.2+71.53%58.30%-2.65%-4.92%10:30:14.0
206242Jeremy LarcombeAxe Valley Runners Male Senior31M 1:44:58.6+43:48.4+71.61%58.27%-2.70%-4.97%10:30:14.0
207158Emma Green Female Vet 4548F 1:45:01.2+43:51.0+71.69%58.25%-2.74%-5.01%10:30:14.0
208112Kay DouglasExmouth Harriers Female Vet 6063F 1:45:17.0+44:06.8+72.12%58.10%-3.00%-5.28%10:30:14.0
209450Kate WilsonOkehampton RC Female Vet 5557F 1:45:25.8+44:15.6+72.36%58.02%-3.14%-5.42%10:30:14.0
210348Shaun Roberts Male Vet 4547M 1:45:42.3+44:32.1+72.81%57.87%-3.41%-5.70%10:30:14.0
21122Jack Ailsby Fish Male Senior28M 1:46:15.9+45:05.7+73.72%57.56%-3.96%-6.26%10:30:14.0
211437Jaime WebbCrossFit Exe Male Vet 4043M 1:46:15.9+45:05.7+73.72%57.56%-3.96%-6.26%10:30:14.0
21324Tanya AlexanderHolbeton Harriers Female Vet 4041F 1:46:48.8+45:38.6+74.62%57.27%-4.49%-6.81%10:30:14.0
21434Kirsty BickellGreenbow Running Club Female Vet 5050F 1:47:06.6+45:56.4+75.10%57.11%-4.78%-7.10%10:30:14.0
215168Simon HallChard Road Runners Male Vet 6062M 1:47:30.1+46:19.9+75.74%56.90%-5.17%-7.49%10:30:14.0
216283Alan MorbeyAxe Valley Runners Male Vet 6063M 1:47:44.2+46:34.0+76.13%56.78%-5.40%-7.73%10:30:14.0
217362Mandy SandersORC - Offroad & Coastal Running Club Female Vet 5052F 1:47:54.8+46:44.6+76.42%56.68%-5.57%-7.91%10:30:14.0
21845Andrew Bridgeman Male Vet 4549M 1:48:00.8+46:50.6+76.58%56.63%-5.67%-8.01%10:30:14.0
218169Tiffany HanleyHardley Runners Female Vet 5054F 1:48:00.8+46:50.6+76.58%56.63%-5.67%-8.01%10:30:14.0
220322Andy Pidsley Male Vet 5556M 1:48:04.9+46:54.7+76.69%56.60%-5.74%-8.07%10:30:14.0
221354Shane Hudd Male Vet 4546M 1:48:06.1+46:55.9+76.72%56.59%-5.75%-8.09%10:30:14.0
222149Alison GermanSouth West Road Runners Female Vet 4549F 1:48:30.6+47:20.4+77.39%56.37%-6.15%-8.50%10:30:14.0
223378Phoebe Smith Female Senior29F 1:48:46.4+47:36.2+77.82%56.24%-6.41%-8.77%10:30:14.0
224274Danni MeyerHeavitree running group Female Vet 4548F 1:49:01.2+47:51.0+78.22%56.11%-6.65%-9.01%10:30:14.0
22552Sally Bunkall Female Vet 6061F 1:49:05.3+47:55.1+78.34%56.07%-6.72%-9.08%10:30:14.0
226278Catherine MoffattCrewkerne Running Club Female Vet 5050F 1:49:07.0+47:56.8+78.38%56.06%-6.75%-9.11%10:30:14.0
227460Vanda van Der LindenSouth West Road Runners Female Vet 5559F 1:49:09.3+47:59.1+78.45%56.04%-6.79%-9.15%10:30:14.0
228255Anne MarshallPlymouth Harriers Female Vet 6061F 1:49:21.0+48:10.8+78.76%55.94%-6.98%-9.34%10:30:14.0
229388Ant Stables Male Vet 4041M 1:49:40.6+48:30.4+79.30%55.77%-7.30%-9.67%10:30:14.0
230178Amy HawkesBideford AAC Female Vet 5053F 1:49:58.3+48:48.1+79.78%55.62%-7.58%-9.96%10:30:14.0
230334Pauline Pyke Female Vet 5054F 1:49:58.3+48:48.1+79.78%55.62%-7.58%-9.96%10:30:14.0
232344Fern RiceSouth West Road Runners Female Senior33F 1:50:04.2+48:54.0+79.94%55.57%-7.68%-10.06%10:30:14.0
233397Ellodie StottOkehampton RC Female Senior31F 1:50:11.5+49:01.3+80.14%55.51%-7.80%-10.18%10:30:14.0
234319Linda PickardLaunceston Road Runners Female Vet 5559F 1:50:21.0+49:10.8+80.40%55.43%-7.95%-10.34%10:30:14.0
235316David PenningtonDumfries Running Club Male Vet 6565M 1:50:27.6+49:17.4+80.58%55.38%-8.06%-10.45%10:30:14.0
236317Jane PenningtonHartfell Hill Running Club Female Vet 6062F 1:50:32.7+49:22.5+80.72%55.33%-8.14%-10.54%10:30:14.0
23747Charlie Broadhurst-Individual- Female Senior37F 1:50:42.2+49:32.0+80.98%55.26%-8.30%-10.70%10:30:14.0
238170Kate HardingHoniton RC Female Vet 5559F 1:50:43.4+49:33.2+81.01%55.25%-8.32%-10.72%10:30:14.0
23929Simon BarrettInstinctive Sport Fun Runners Male Vet 6060M 1:50:47.0+49:36.8+81.11%55.22%-8.38%-10.78%10:30:14.0
240432Pauline WarnerSouth West Road Runners Female Vet 6569F 1:51:00.5+49:50.3+81.48%55.10%-8.60%-11.00%10:30:14.0
241402Mary TebbHardley Runners Female Vet 5054F 1:51:05.1+49:54.9+81.60%55.07%-8.67%-11.08%10:30:14.0
242445Alison WhiteExmouth Harriers Female Vet 6566F 1:51:16.8+50:06.6+81.92%54.97%-8.86%-11.27%10:30:14.0
243417Travis TricePlymouth Musketeers Running Club Male Senior19M 1:51:17.9+50:07.7+81.95%54.96%-8.88%-11.29%10:30:14.0
244224Ellie JordanSouth Devon AC Female Senior28F 1:51:24.9+50:14.7+82.14%54.90%-9.00%-11.41%10:30:14.0
24554Jo BuxtonHoniton RC Female Senior30F 1:51:25.4+50:15.2+82.15%54.90%-9.00%-11.41%10:30:14.0
246279Mary MooreCrediton Running Network Female Vet 4548F 1:51:30.9+50:20.7+82.30%54.85%-9.09%-11.51%10:30:14.0
247434Mandy Watts Female Vet 5052F 1:51:32.4+50:22.2+82.34%54.84%-9.12%-11.53%10:30:14.0
248371Sarah SinclairPlymouth Musketeers Running Club Female Vet 5052F 1:51:38.5+50:28.3+82.51%54.79%-9.22%-11.63%10:30:14.0
24979Julie CookPlymouth Musketeers Running Club Female Vet 4549F 1:51:38.8+50:28.6+82.52%54.79%-9.22%-11.64%10:30:14.0
25098Graham Dalton-Ginn Male Vet 4042M 1:52:00.5+50:50.3+83.11%54.61%-9.58%-12.00%10:30:14.0
Page / 2
Racers per page: